createdAt,value
2022-09-12T00:01:25.662Z,3.00
2022-09-12T00:04:00.158Z,6.40
2022-09-12T00:06:36.788Z,3.25
2022-09-12T00:09:10.699Z,5.75
2022-09-12T00:11:45.489Z,6.78
2022-09-12T00:14:18.486Z,3.30
2022-09-12T00:16:46.758Z,4.97
2022-09-12T00:19:16.827Z,5.57
2022-09-12T00:21:44.495Z,3.67
2022-09-12T00:24:12.243Z,3.95
2022-09-12T00:26:40.222Z,4.38
2022-09-12T00:29:07.817Z,3.78
2022-09-12T00:31:35.729Z,4.68
2022-09-12T00:34:03.368Z,4.05
2022-09-12T00:36:31.554Z,5.07
2022-09-12T00:38:59.726Z,5.15
2022-09-12T00:41:27.127Z,3.72
2022-09-12T00:44:11.927Z,7.38
2022-09-12T00:46:59.842Z,4.22
2022-09-12T00:49:27.234Z,8.27
2022-09-12T00:52:08.500Z,4.00
2022-09-12T00:54:47.563Z,4.72
2022-09-12T00:57:20.848Z,3.47
2022-09-12T00:59:58.405Z,3.90
2022-09-12T01:02:27.618Z,4.13
2022-09-12T01:04:56.037Z,3.88
2022-09-12T01:07:24.065Z,9.32
2022-09-12T01:09:52.231Z,3.17
2022-09-12T01:12:20.639Z,4.63
2022-09-12T01:14:48.193Z,5.47
2022-09-12T01:17:16.899Z,5.45
2022-09-12T01:20:12.382Z,4.53
2022-09-12T01:23:16.826Z,5.32
2022-09-12T01:26:16.260Z,4.78
2022-09-12T01:29:11.168Z,5.18
2022-09-12T01:32:00.336Z,9.23
2022-09-12T01:35:07.254Z,4.28
2022-09-12T01:38:03.620Z,6.47
2022-09-12T01:40:51.529Z,4.82
2022-09-12T01:43:48.301Z,5.10
2022-09-12T01:46:24.763Z,3.50
2022-09-12T01:49:07.522Z,4.60
2022-09-12T01:52:11.108Z,5.72
2022-09-12T01:55:09.944Z,5.00
2022-09-12T01:58:00.662Z,2.53
2022-09-12T02:03:13.777Z,4.35
2022-09-12T02:05:57.025Z,3.70
2022-09-12T02:08:38.754Z,3.75
2022-09-12T02:11:12.273Z,6.22
2022-09-12T02:13:52.417Z,4.32
2022-09-12T02:16:37.200Z,4.82
2022-09-12T02:19:23.430Z,3.78
2022-09-12T02:21:56.034Z,3.92
2022-09-12T02:24:36.106Z,5.22
2022-09-12T02:27:21.209Z,7.60
2022-09-12T02:29:50.056Z,4.18
2022-09-12T02:32:35.321Z,7.15
2022-09-12T02:35:13.918Z,4.28
2022-09-12T02:38:02.220Z,5.78
2022-09-12T02:40:32.481Z,3.25
2022-09-12T02:45:29.601Z,2.40
2022-09-12T02:48:09.118Z,4.75
2022-09-12T02:50:38.341Z,2.65
2022-09-12T02:53:09.361Z,4.00
2022-09-12T02:55:40.262Z,4.03
2022-09-12T02:58:17.071Z,4.55
2022-09-12T03:01:05.846Z,3.30
2022-09-12T03:04:07.542Z,5.20
2022-09-12T03:06:52.923Z,3.53
2022-09-12T03:09:32.167Z,5.07
2022-09-12T03:12:31.018Z,3.42
2022-09-12T03:15:36.609Z,6.87
2022-09-12T03:18:45.907Z,2.42
2022-09-12T03:21:48.351Z,4.93
2022-09-12T03:24:33.088Z,4.75
2022-09-12T03:27:30.100Z,4.43
2022-09-12T03:29:58.613Z,2.70
2022-09-12T03:32:46.489Z,5.75
2022-09-12T03:35:18.857Z,5.82
2022-09-12T03:37:51.773Z,3.33
2022-09-12T03:40:20.140Z,2.42
2022-09-12T03:42:48.152Z,2.78
2022-09-12T03:45:16.705Z,3.38
2022-09-12T03:47:44.302Z,4.05
2022-09-12T03:50:11.850Z,4.00
2022-09-12T03:52:39.705Z,3.00
2022-09-12T03:55:07.759Z,3.35
2022-09-12T03:57:35.392Z,3.40
2022-09-12T04:00:05.590Z,2.05
2022-09-12T04:02:40.144Z,2.30
2022-09-12T04:05:08.347Z,3.15
2022-09-12T04:07:35.836Z,3.72
2022-09-12T04:10:04.069Z,3.97
2022-09-12T04:12:31.873Z,3.40
2022-09-12T04:14:59.397Z,4.28
2022-09-12T04:17:27.005Z,3.08
2022-09-12T04:19:54.717Z,4.97
2022-09-12T04:22:22.272Z,3.55
2022-09-12T04:24:49.808Z,2.53
2022-09-12T04:27:17.844Z,3.75
2022-09-12T04:29:45.471Z,3.40
2022-09-12T04:32:13.154Z,2.63
2022-09-12T04:34:40.977Z,5.93
2022-09-12T04:37:08.678Z,3.78
2022-09-12T04:39:36.300Z,4.53
2022-09-12T04:42:04.759Z,4.30
2022-09-12T04:44:32.342Z,2.05
2022-09-12T04:46:59.899Z,3.53
2022-09-12T04:49:27.758Z,2.20
2022-09-12T04:51:55.322Z,2.58
2022-09-12T04:54:22.937Z,6.28
2022-09-12T04:56:52.574Z,3.53
2022-09-12T04:59:22.492Z,3.05
2022-09-12T05:01:50.442Z,1.52
2022-09-12T05:04:18.776Z,4.30
2022-09-12T05:06:47.527Z,6.93
2022-09-12T05:09:15.926Z,6.28
2022-09-12T05:14:34.224Z,3.50
2022-09-12T05:17:02.768Z,2.38
2022-09-12T05:19:32.066Z,4.28
2022-09-12T05:22:00.571Z,2.08
2022-09-12T05:24:28.836Z,5.43
2022-09-12T05:26:56.801Z,5.45
2022-09-12T05:29:25.632Z,3.90
2022-09-12T05:31:53.501Z,3.55
2022-09-12T05:34:22.081Z,4.80
2022-09-12T05:36:49.780Z,3.97
2022-09-12T05:39:18.722Z,7.43
2022-09-12T05:41:47.389Z,3.95
2022-09-12T05:44:15.658Z,2.58
2022-09-12T05:46:46.733Z,1.67
2022-09-12T05:49:14.789Z,5.32
2022-09-12T05:51:45.639Z,2.50
2022-09-12T05:54:19.501Z,3.92
2022-09-12T05:56:49.374Z,1.55
2022-09-12T05:59:21.559Z,2.30
2022-09-12T06:01:52.569Z,4.07
2022-09-12T06:04:21.253Z,5.60
2022-09-12T06:06:49.246Z,2.08
2022-09-12T06:09:17.837Z,3.42
2022-09-12T06:11:46.989Z,2.83
2022-09-12T06:14:18.099Z,3.22
2022-09-12T06:16:47.453Z,2.08
2022-09-12T06:19:20.848Z,2.38
2022-09-12T06:21:50.392Z,2.13
2022-09-12T06:24:19.430Z,3.97
2022-09-12T06:26:49.961Z,4.20
2022-09-12T06:29:19.279Z,1.60
2022-09-12T06:31:47.549Z,3.08
2022-09-12T06:34:16.753Z,3.20
2022-09-12T06:36:48.705Z,3.55
2022-09-12T06:39:22.777Z,3.30
2022-09-12T06:41:52.118Z,4.20
2022-09-12T06:46:58.807Z,3.83
2022-09-12T06:49:26.523Z,2.65
2022-09-12T06:51:54.324Z,2.22
2022-09-12T06:54:23.386Z,2.95
2022-09-12T06:56:50.815Z,3.35
2022-09-12T06:59:18.705Z,3.95
2022-09-12T07:01:46.495Z,4.15
2022-09-12T07:04:14.491Z,3.67
2022-09-12T07:06:44.965Z,2.42
2022-09-12T07:09:18.388Z,5.05
2022-09-12T07:11:46.988Z,2.78
2022-09-12T07:14:15.456Z,2.45
2022-09-12T07:16:43.578Z,2.28
2022-09-12T07:19:12.331Z,1.88
2022-09-12T07:21:41.672Z,4.93
2022-09-12T07:24:12.548Z,1.05
2022-09-12T07:26:44.987Z,1.95
2022-09-12T07:32:06.889Z,1.60
2022-09-12T07:34:35.773Z,6.07
2022-09-12T07:37:03.968Z,6.05
2022-09-12T07:39:32.394Z,4.15
2022-09-12T07:42:00.573Z,5.00
2022-09-12T07:46:57.857Z,1.98
2022-09-12T07:49:26.062Z,3.00
2022-09-12T07:51:54.108Z,2.63
2022-09-12T07:54:22.383Z,3.13
2022-09-12T07:56:50.181Z,3.72
2022-09-12T07:59:35.316Z,2.92
2022-09-12T08:02:06.029Z,4.25
2022-09-12T08:04:34.410Z,5.93
2022-09-12T08:07:01.974Z,4.05
2022-09-12T08:09:30.014Z,3.15
2022-09-12T08:11:57.879Z,6.60
2022-09-12T08:14:25.715Z,2.67
2022-09-12T08:16:53.694Z,3.55
2022-09-12T08:19:22.860Z,1.40
2022-09-12T08:21:50.729Z,1.98
2022-09-12T08:24:18.432Z,2.40
2022-09-12T08:26:46.243Z,2.85
2022-09-12T08:29:14.014Z,3.17
2022-09-12T08:31:42.621Z,2.28
2022-09-12T08:34:10.272Z,1.48
2022-09-12T08:36:37.932Z,2.30
2022-09-12T08:39:07.955Z,2.85
2022-09-12T08:41:43.531Z,1.92
2022-09-12T08:44:29.605Z,6.07
2022-09-12T08:47:32.962Z,1.80
2022-09-12T08:50:22.560Z,1.65
2022-09-12T08:52:58.182Z,2.50
2022-09-12T08:55:37.037Z,2.13
2022-09-12T08:58:20.972Z,2.63
2022-09-12T09:01:30.354Z,2.50
2022-09-12T09:04:17.929Z,1.63
2022-09-12T09:07:17.014Z,3.63
2022-09-12T09:10:20.091Z,7.60
2022-09-12T09:13:08.939Z,3.17
2022-09-12T09:16:01.920Z,2.97
2022-09-12T09:18:35.405Z,3.33
2022-09-12T09:21:23.927Z,2.72
2022-09-12T09:24:10.225Z,2.05
2022-09-12T09:27:39.448Z,1.15
2022-09-12T09:30:06.119Z,2.78
2022-09-12T09:32:41.096Z,1.30
2022-09-12T09:35:42.651Z,4.55
2022-09-12T09:39:16.357Z,2.45
2022-09-12T09:42:17.152Z,2.20
2022-09-12T09:44:49.132Z,4.25
2022-09-12T09:47:19.868Z,2.22
2022-09-12T09:49:47.728Z,1.90
2022-09-12T09:52:25.139Z,4.15
2022-09-12T09:55:00.288Z,4.60
2022-09-12T09:57:37.240Z,3.65
2022-09-12T10:00:27.150Z,4.80
2022-09-12T10:03:23.239Z,2.75
2022-09-12T10:05:55.415Z,2.05
2022-09-12T10:08:36.743Z,2.50
2022-09-12T10:11:23.007Z,2.40
2022-09-12T10:14:01.397Z,3.20
2022-09-12T10:16:33.326Z,2.72
2022-09-12T10:19:04.285Z,0.95
2022-09-12T10:21:46.245Z,1.15
2022-09-12T10:24:25.200Z,2.65
2022-09-12T10:27:06.000Z,0.98
2022-09-12T10:29:46.034Z,4.00
2022-09-12T10:32:30.709Z,6.53
2022-09-12T10:35:17.762Z,0.88
2022-09-12T10:38:26.442Z,5.22
2022-09-12T10:41:10.376Z,0.90
2022-09-12T10:43:41.616Z,2.45
2022-09-12T10:46:18.570Z,3.63
2022-09-12T10:48:49.971Z,1.23
2022-09-12T10:51:29.640Z,1.67
2022-09-12T10:56:47.307Z,2.13
2022-09-12T10:59:45.429Z,2.22
2022-09-12T11:02:21.826Z,2.33
2022-09-12T11:05:22.739Z,2.58
2022-09-12T11:08:03.130Z,1.55
2022-09-12T11:10:44.912Z,2.10
2022-09-12T11:13:21.327Z,2.10
2022-09-12T11:16:23.373Z,0.90
2022-09-12T11:19:04.191Z,1.58
2022-09-12T11:22:16.099Z,2.90
2022-09-12T11:25:08.194Z,2.78
2022-09-12T11:28:13.708Z,1.38
2022-09-12T11:31:22.630Z,2.72
2022-09-12T11:33:56.864Z,2.92
2022-09-12T11:36:42.881Z,1.98
2022-09-12T11:39:17.722Z,7.38
2022-09-12T11:42:00.657Z,2.70
2022-09-12T11:44:56.215Z,3.22
2022-09-12T11:47:28.939Z,2.05
2022-09-12T11:49:59.965Z,2.60
2022-09-12T11:52:38.954Z,0.80
2022-09-12T11:55:18.551Z,1.25
2022-09-12T11:57:56.335Z,3.70
2022-09-12T12:00:39.319Z,2.53
2022-09-12T12:03:07.084Z,4.10
2022-09-12T12:05:54.514Z,1.27
2022-09-12T12:08:26.465Z,1.35
2022-09-12T12:11:02.011Z,2.85
2022-09-12T12:13:34.764Z,1.35
2022-09-12T12:16:16.023Z,2.90
2022-09-12T12:18:44.711Z,3.65
2022-09-12T12:21:45.814Z,2.28
2022-09-12T12:24:25.400Z,1.30
2022-09-12T12:27:04.821Z,4.15
2022-09-12T12:29:41.583Z,5.03
2022-09-12T12:32:11.208Z,2.92
2022-09-12T12:34:47.835Z,2.20
2022-09-12T12:37:20.313Z,1.33
2022-09-12T12:39:53.908Z,4.47
2022-09-12T12:42:34.336Z,2.50
2022-09-12T12:45:23.725Z,4.30
2022-09-12T12:48:10.454Z,1.58
2022-09-12T12:50:39.405Z,2.88
2022-09-12T12:53:28.377Z,1.47
2022-09-12T12:55:57.663Z,3.28
2022-09-12T12:58:39.801Z,2.80
2022-09-12T13:01:12.580Z,4.47
2022-09-12T13:03:53.264Z,2.28
2022-09-12T13:06:42.361Z,5.68
2022-09-12T13:09:33.380Z,3.90
2022-09-12T13:12:17.502Z,3.65
2022-09-12T13:14:56.652Z,3.03
2022-09-12T13:17:43.843Z,1.38
2022-09-12T13:20:33.508Z,1.75
2022-09-12T13:23:01.999Z,2.30
2022-09-12T13:25:37.015Z,0.93
2022-09-12T13:28:10.903Z,1.60
2022-09-12T13:31:07.832Z,1.75
2022-09-12T13:33:49.760Z,0.68
2022-09-12T13:36:47.052Z,4.18
2022-09-12T13:39:19.221Z,3.95
2022-09-12T13:42:34.895Z,2.88
2022-09-12T13:45:15.095Z,2.70
2022-09-12T13:47:47.082Z,1.77
2022-09-12T13:50:32.071Z,2.45
2022-09-12T13:53:06.883Z,1.55
2022-09-12T13:55:43.563Z,1.88
2022-09-12T13:58:31.960Z,1.95
2022-09-12T14:01:10.656Z,0.95
2022-09-12T14:04:31.809Z,2.47
2022-09-12T14:07:03.947Z,2.08
2022-09-12T14:09:43.718Z,3.58
2022-09-12T14:12:34.980Z,2.05
2022-09-12T14:15:03.927Z,3.65
2022-09-12T14:17:37.257Z,3.97
2022-09-12T14:20:25.008Z,1.75
2022-09-12T14:22:54.161Z,2.75
2022-09-12T14:25:26.116Z,2.30
2022-09-12T14:27:57.263Z,4.20
2022-09-12T14:30:37.375Z,2.40
2022-09-12T14:33:10.667Z,2.92
2022-09-12T14:35:43.847Z,1.52
2022-09-12T14:38:17.366Z,2.67
2022-09-12T14:40:48.750Z,3.20
2022-09-12T14:43:26.731Z,1.98
2022-09-12T14:46:22.563Z,3.38
2022-09-12T14:49:10.936Z,3.53
2022-09-12T14:51:55.758Z,0.75
2022-09-12T14:54:44.674Z,1.35
2022-09-12T14:57:40.680Z,2.70
2022-09-12T15:00:20.935Z,4.28
2022-09-12T15:02:51.048Z,3.28
2022-09-12T15:05:26.506Z,2.63
2022-09-12T15:08:01.049Z,4.70
2022-09-12T15:10:36.131Z,1.55
2022-09-12T15:13:14.551Z,3.42
2022-09-12T15:16:00.584Z,3.72
2022-09-12T15:18:29.399Z,3.53
2022-09-12T15:21:02.499Z,1.95
2022-09-12T15:23:38.308Z,1.63
2022-09-12T15:26:07.286Z,2.85
2022-09-12T15:28:35.917Z,2.72
2022-09-12T15:31:24.272Z,2.45
2022-09-12T15:33:53.147Z,1.13
2022-09-12T15:36:23.482Z,0.98
2022-09-12T15:38:52.800Z,2.80
2022-09-12T15:41:27.880Z,1.65
2022-09-12T15:43:56.945Z,1.85
2022-09-12T15:46:25.285Z,2.67
2022-09-12T15:48:53.362Z,1.88
2022-09-12T15:51:22.446Z,2.13
2022-09-12T15:53:51.939Z,1.42
2022-09-12T15:56:22.757Z,5.25
2022-09-12T15:58:59.851Z,5.57
2022-09-12T16:01:29.729Z,2.35
2022-09-12T16:03:58.499Z,1.58
2022-09-12T16:06:33.573Z,2.97
2022-09-12T16:09:04.127Z,3.53
2022-09-12T16:11:33.705Z,2.22
2022-09-12T16:14:02.719Z,2.35
2022-09-12T16:16:33.034Z,1.15
2022-09-12T16:19:02.170Z,3.03
2022-09-12T16:21:31.202Z,2.00
2022-09-12T16:24:00.432Z,2.30
2022-09-12T16:26:28.821Z,3.60
2022-09-12T16:28:59.506Z,7.18
2022-09-12T16:31:29.260Z,3.70
2022-09-12T16:33:57.630Z,2.47
2022-09-12T16:36:25.612Z,2.40
2022-09-12T16:38:55.024Z,6.60
2022-09-12T16:41:25.535Z,4.70
2022-09-12T16:43:54.936Z,45.38
2022-09-12T16:46:29.597Z,208.80
2022-09-12T16:48:59.449Z,141.80
2022-09-12T16:51:33.820Z,130.95
2022-09-12T16:54:02.599Z,123.50
2022-09-12T16:56:30.841Z,127.03
2022-09-12T16:58:59.168Z,124.05
2022-09-12T17:01:27.959Z,99.15
2022-09-12T17:03:58.683Z,109.68
2022-09-12T17:06:28.642Z,99.05
2022-09-12T17:09:01.452Z,95.22
2022-09-12T17:11:34.153Z,86.13
2022-09-12T17:14:06.946Z,55.15
2022-09-12T17:16:42.435Z,35.90
2022-09-12T17:19:18.218Z,27.38
2022-09-12T17:21:48.932Z,29.10
2022-09-12T17:24:18.920Z,38.30
2022-09-12T17:26:48.050Z,37.38
2022-09-12T17:29:17.762Z,42.90
2022-09-12T17:31:47.936Z,27.80
2022-09-12T17:34:18.057Z,16.63
2022-09-12T17:39:17.501Z,17.30
2022-09-12T17:41:46.907Z,22.02
2022-09-12T17:44:16.595Z,30.40
2022-09-12T17:46:46.674Z,62.45
2022-09-12T17:49:19.252Z,89.60
2022-09-12T17:51:49.373Z,41.78
2022-09-12T17:54:21.835Z,36.83
2022-09-12T17:56:51.710Z,28.10
2022-09-12T18:02:11.109Z,23.02
2022-09-12T18:04:46.461Z,15.30
2022-09-12T18:07:18.989Z,25.40
2022-09-12T18:09:48.172Z,29.90
2022-09-12T18:12:19.135Z,18.02
2022-09-12T18:14:47.555Z,35.65
2022-09-12T18:17:16.233Z,60.70
2022-09-12T18:19:45.466Z,52.55
2022-09-12T18:22:14.020Z,39.57
2022-09-12T18:24:42.272Z,21.10
2022-09-12T18:27:10.875Z,21.23
2022-09-12T18:29:38.971Z,17.88
2022-09-12T18:32:07.321Z,14.27
2022-09-12T18:34:35.832Z,13.38
2022-09-12T18:37:05.883Z,14.35
2022-09-12T18:42:02.725Z,19.38
2022-09-12T18:44:31.633Z,18.83
2022-09-12T18:47:04.812Z,18.67
2022-09-12T18:49:34.662Z,16.17
2022-09-12T18:52:07.318Z,12.32
2022-09-12T18:54:37.831Z,21.55
2022-09-12T18:57:06.976Z,23.77
2022-09-12T18:59:36.114Z,20.55
2022-09-12T19:02:06.122Z,25.40
2022-09-12T19:04:35.246Z,18.00
2022-09-12T19:07:04.427Z,18.30
2022-09-12T19:09:34.404Z,19.88
2022-09-12T19:12:03.260Z,45.58
2022-09-12T19:14:31.201Z,37.97
2022-09-12T19:16:59.262Z,28.35
2022-09-12T19:19:27.566Z,17.00
2022-09-12T19:21:56.850Z,14.32
2022-09-12T19:24:25.985Z,14.18
2022-09-12T19:26:54.472Z,13.93
2022-09-12T19:29:22.924Z,15.80
2022-09-12T19:31:53.028Z,12.23
2022-09-12T19:34:21.799Z,11.07
2022-09-12T19:36:49.936Z,14.82
2022-09-12T19:39:19.968Z,11.98
2022-09-12T19:41:49.680Z,8.63
2022-09-12T19:44:19.406Z,8.83
2022-09-12T19:46:48.511Z,7.10
2022-09-12T19:49:20.153Z,9.45
2022-09-12T19:51:49.053Z,12.98
2022-09-12T19:54:21.099Z,13.83
2022-09-12T19:56:49.426Z,13.68
2022-09-12T19:59:17.850Z,10.00
2022-09-12T20:01:47.724Z,12.52
2022-09-12T20:04:17.534Z,12.52
2022-09-12T20:06:45.767Z,7.75
2022-09-12T20:09:14.525Z,10.43
2022-09-12T20:11:42.544Z,8.15
2022-09-12T20:14:10.589Z,7.07
2022-09-12T20:16:39.204Z,8.15
2022-09-12T20:19:08.634Z,7.55
2022-09-12T20:21:37.952Z,9.45
2022-09-12T20:24:13.936Z,11.82
2022-09-12T20:26:44.050Z,7.05
2022-09-12T20:29:12.669Z,7.47
2022-09-12T20:31:42.882Z,7.40
2022-09-12T20:34:18.811Z,8.05
2022-09-12T20:36:47.771Z,8.20
2022-09-12T20:39:20.073Z,5.35
2022-09-12T20:41:48.693Z,6.78
2022-09-12T20:44:17.359Z,9.40
2022-09-12T20:46:45.569Z,12.52
2022-09-12T20:49:13.595Z,11.10
2022-09-12T20:51:41.333Z,6.05
2022-09-12T20:54:11.099Z,7.35
2022-09-12T20:56:39.193Z,9.05
2022-09-12T20:59:07.388Z,6.05
2022-09-12T21:01:35.287Z,10.73
2022-09-12T21:04:04.227Z,8.80
2022-09-12T21:06:32.684Z,11.98
2022-09-12T21:09:00.820Z,15.70
2022-09-12T21:11:29.742Z,22.40
2022-09-12T21:14:01.628Z,25.98
2022-09-12T21:16:29.760Z,34.67
2022-09-12T21:18:59.710Z,32.13
2022-09-12T21:21:27.924Z,22.98
2022-09-12T21:24:02.909Z,24.52
2022-09-12T21:26:31.822Z,19.70
2022-09-12T21:29:00.369Z,19.37
2022-09-12T21:31:28.869Z,12.98
2022-09-12T21:33:57.102Z,9.23
2022-09-12T21:36:26.133Z,11.88
2022-09-12T21:38:58.307Z,10.75
2022-09-12T21:41:26.931Z,12.73
2022-09-12T21:43:54.716Z,8.02
2022-09-12T21:46:22.457Z,9.38
2022-09-12T21:48:50.800Z,13.93
2022-09-12T21:51:19.201Z,15.85
2022-09-12T21:53:47.703Z,16.45
2022-09-12T21:56:16.290Z,11.10
2022-09-12T21:58:44.289Z,11.48
2022-09-12T22:01:13.059Z,13.20
2022-09-12T22:03:43.270Z,25.00
2022-09-12T22:06:11.945Z,21.25
2022-09-12T22:08:40.080Z,12.77
2022-09-12T22:11:10.241Z,9.32
2022-09-12T22:13:42.859Z,13.20
2022-09-12T22:16:11.799Z,16.42
2022-09-12T22:18:40.226Z,16.02
2022-09-12T22:21:15.571Z,12.52
2022-09-12T22:24:02.108Z,12.23
2022-09-12T22:26:32.318Z,7.90
2022-09-12T22:29:01.099Z,7.85
2022-09-12T22:31:28.847Z,7.75
2022-09-12T22:33:57.252Z,14.43
2022-09-12T22:36:30.478Z,9.38
2022-09-12T22:39:00.308Z,9.55
2022-09-12T22:41:28.649Z,11.85
2022-09-12T22:43:57.979Z,9.77
2022-09-12T22:46:26.237Z,10.65
2022-09-12T22:48:55.744Z,10.73
2022-09-12T22:51:23.769Z,10.27
2022-09-12T22:53:51.737Z,11.00
2022-09-12T22:56:19.614Z,13.43
2022-09-12T22:58:47.476Z,10.02
2022-09-12T23:01:15.525Z,9.90
2022-09-12T23:03:43.313Z,8.80
2022-09-12T23:06:11.840Z,11.65
2022-09-12T23:08:40.129Z,10.73
2022-09-12T23:11:10.924Z,8.25
2022-09-12T23:13:42.172Z,10.10
2022-09-12T23:16:21.354Z,9.95
2022-09-12T23:18:49.749Z,10.73
2022-09-12T23:21:21.332Z,9.13
2022-09-12T23:23:49.675Z,7.15
2022-09-12T23:26:24.543Z,7.18
2022-09-12T23:29:00.528Z,7.90
2022-09-12T23:31:33.490Z,6.40
2022-09-12T23:34:06.020Z,10.23
2022-09-12T23:36:34.374Z,23.80
2022-09-12T23:39:02.354Z,9.35
2022-09-12T23:41:30.193Z,7.70
2022-09-12T23:43:58.145Z,5.85
2022-09-12T23:46:25.864Z,6.90
2022-09-12T23:48:53.673Z,7.03
2022-09-12T23:51:22.169Z,5.63
2022-09-12T23:53:50.161Z,9.75
2022-09-12T23:56:17.797Z,6.50
2022-09-12T23:58:45.471Z,10.40
